Orbital elements of BSAT-2C
| Launched | 10 June 2003 |
| Flight ended | – |
| Launch site | Europe's Spaceport, Kourou, French Guiana |
| Owner | Japan |
| NORAD ID | 27830 |
| Date fetched |
Epoch osculation |
Inc. [°] |
Ecc. | RA asc node [hr] |
Arg Peri. [°] |
Mean anom [°] |
Mean motion [rev/day] |
Abs. mag |
| Date fetched |
Epoch osculation |
Inc. [°] |
Ecc. | RA asc node [hr] |
Arg Peri. [°] |
Mean anom [°] |
Mean motion [rev/day] |
Abs. mag |
| 2026 May 08 17:57 | 2026 May 04 17:12:30 | 10.0888 | 0.00072 | 3.4967 | 278.5820 | 267.7102 | 0.99201 | – |
| 2026 May 07 17:58 | 2026 May 04 17:12:30 | 10.0888 | 0.00072 | 3.4967 | 278.5820 | 267.7102 | 0.99201 | – |
| 2026 May 06 17:57 | 2026 May 04 17:12:30 | 10.0888 | 0.00072 | 3.4967 | 278.5820 | 267.7102 | 0.99201 | – |
| 2026 May 05 17:57 | 2026 May 04 17:12:30 | 10.0888 | 0.00072 | 3.4967 | 278.5820 | 267.7102 | 0.99201 | – |
| 2026 May 04 17:57 | 2026 Apr 29 17:44:38 | 10.0775 | 0.00073 | 3.4998 | 278.2736 | 267.7102 | 0.99201 | – |
| 2026 May 03 17:57 | 2026 Apr 29 17:44:38 | 10.0775 | 0.00073 | 3.4998 | 278.2736 | 267.7102 | 0.99201 | – |
| 2026 May 02 17:57 | 2026 Apr 29 17:44:38 | 10.0775 | 0.00073 | 3.4998 | 278.2736 | 267.7102 | 0.99201 | – |
| 2026 May 01 17:56 | 2026 Apr 29 17:44:38 | 10.0775 | 0.00073 | 3.4998 | 278.2736 | 267.7102 | 0.99201 | – |
| 2026 Apr 30 17:56 | 2026 Apr 29 17:44:38 | 10.0775 | 0.00073 | 3.4998 | 278.2736 | 267.7102 | 0.99201 | – |
| 2026 Apr 29 17:57 | 2026 Apr 24 04:08:18 | 10.0649 | 0.00074 | 3.5033 | 278.1841 | 267.7102 | 0.99201 | – |
| 2026 Apr 28 17:56 | 2026 Apr 24 04:08:18 | 10.0649 | 0.00074 | 3.5033 | 278.1841 | 267.7102 | 0.99201 | – |
| 2026 Apr 27 17:58 | 2026 Apr 24 04:08:18 | 10.0649 | 0.00074 | 3.5033 | 278.1841 | 267.7102 | 0.99201 | – |
| 2026 Apr 26 17:58 | 2026 Apr 24 04:08:18 | 10.0649 | 0.00074 | 3.5033 | 278.1841 | 267.7102 | 0.99201 | – |
| 2026 Apr 25 17:58 | 2026 Apr 24 04:08:18 | 10.0649 | 0.00074 | 3.5033 | 278.1841 | 267.7102 | 0.99201 | – |
| 2026 Apr 24 17:59 | 2026 Apr 24 04:08:18 | 10.0649 | 0.00074 | 3.5033 | 278.1841 | 267.7102 | 0.99201 | – |
| 2026 Apr 23 17:57 | 2026 Apr 19 02:44:02 | 10.0538 | 0.00075 | 3.5066 | 277.8545 | 267.7102 | 0.99201 | – |
| 2026 Apr 22 17:57 | 2026 Apr 19 02:44:02 | 10.0538 | 0.00075 | 3.5066 | 277.8545 | 267.7102 | 0.99201 | – |
| 2026 Apr 21 17:57 | 2026 Apr 19 02:44:02 | 10.0538 | 0.00075 | 3.5066 | 277.8545 | 267.7102 | 0.99201 | – |
| 2026 Apr 20 17:57 | 2026 Apr 19 02:44:02 | 10.0538 | 0.00075 | 3.5066 | 277.8545 | 267.7102 | 0.99201 | – |
| 2026 Apr 19 17:58 | 2026 Apr 19 02:44:02 | 10.0538 | 0.00075 | 3.5066 | 277.8545 | 267.7102 | 0.99201 | – |
| 2026 Apr 18 17:56 | 2026 Apr 13 01:23:23 | 10.0404 | 0.00077 | 3.5104 | 276.5199 | 267.7102 | 0.99201 | – |
| 2026 Apr 16 17:57 | 2026 Apr 13 01:23:23 | 10.0404 | 0.00077 | 3.5104 | 276.5199 | 267.7102 | 0.99201 | – |
| 2026 Apr 14 17:57 | 2026 Apr 13 01:23:23 | 10.0404 | 0.00077 | 3.5104 | 276.5199 | 267.7102 | 0.99201 | – |
| 2026 Apr 13 17:57 | 2026 Apr 13 01:23:23 | 10.0404 | 0.00077 | 3.5104 | 276.5199 | 267.7102 | 0.99201 | – |
| 2026 Apr 12 17:57 | 2026 Apr 08 11:56:59 | 10.0299 | 0.00078 | 3.5133 | 275.5254 | 267.7102 | 0.99201 | – |
| 2026 Apr 11 17:57 | 2026 Apr 08 11:56:59 | 10.0299 | 0.00078 | 3.5133 | 275.5254 | 267.7102 | 0.99201 | – |